createdAt,value
2019-02-24T00:01:02.312Z,32.03
2019-02-24T00:03:33.126Z,36.20
2019-02-24T00:06:07.049Z,28.57
2019-02-24T00:08:38.847Z,30.50
2019-02-24T00:11:11.040Z,33.80
2019-02-24T00:13:43.316Z,33.93
2019-02-24T00:16:13.976Z,28.27
2019-02-24T00:18:46.772Z,33.30
2019-02-24T00:21:17.329Z,31.17
2019-02-24T00:23:47.785Z,32.47
2019-02-24T00:26:19.142Z,35.90
2019-02-24T00:28:49.669Z,32.37
2019-02-24T00:31:21.747Z,33.83
2019-02-24T00:33:53.166Z,28.30
2019-02-24T00:36:26.464Z,35.40
2019-02-24T00:38:56.965Z,31.37
2019-02-24T00:41:29.368Z,35.47
2019-02-24T00:43:59.847Z,31.67
2019-02-24T00:46:30.230Z,35.37
2019-02-24T00:49:00.967Z,34.83
2019-02-24T00:51:34.698Z,31.33
2019-02-24T00:54:07.304Z,40.33
2019-02-24T00:56:39.086Z,35.43
2019-02-24T00:59:10.407Z,42.03
2019-02-24T01:01:41.024Z,35.27
2019-02-24T01:04:13.285Z,41.30
2019-02-24T01:06:43.897Z,42.13
2019-02-24T01:09:14.552Z,36.17
2019-02-24T01:11:46.415Z,39.70
2019-02-24T01:14:16.950Z,42.37
2019-02-24T01:16:49.326Z,39.93
2019-02-24T01:19:19.975Z,40.17
2019-02-24T01:21:51.924Z,36.93
2019-02-24T01:24:22.760Z,35.13
2019-02-24T01:26:53.688Z,32.80
2019-02-24T01:29:24.461Z,36.10
2019-02-24T01:31:55.226Z,38.57
2019-02-24T01:34:25.814Z,43.00
2019-02-24T01:36:56.368Z,37.60
2019-02-24T01:39:29.131Z,34.50
2019-02-24T01:41:59.752Z,36.43
2019-02-24T01:44:31.498Z,35.00
2019-02-24T01:47:01.916Z,40.97
2019-02-24T01:49:34.238Z,32.07
2019-02-24T01:52:05.096Z,37.83
2019-02-24T01:54:36.390Z,38.60
2019-02-24T01:57:10.004Z,36.13
2019-02-24T01:59:43.332Z,40.30
2019-02-24T02:02:14.727Z,36.67
2019-02-24T02:04:46.032Z,45.00
2019-02-24T02:07:17.605Z,38.73
2019-02-24T02:09:48.096Z,39.20
2019-02-24T02:12:22.119Z,40.83
2019-02-24T02:14:54.306Z,42.13
2019-02-24T02:17:25.164Z,45.00
2019-02-24T02:19:55.577Z,40.53
2019-02-24T02:22:26.256Z,40.90
2019-02-24T02:24:57.090Z,54.33
2019-02-24T02:27:28.396Z,52.50
2019-02-24T02:30:01.504Z,42.03
2019-02-24T02:32:31.824Z,41.87
2019-02-24T02:35:03.921Z,46.17
2019-02-24T02:37:36.198Z,53.17
2019-02-24T02:40:06.874Z,44.27
2019-02-24T02:42:37.431Z,48.70
2019-02-24T02:45:10.215Z,43.43
2019-02-24T02:47:41.568Z,45.20
2019-02-24T02:50:12.809Z,43.50
2019-02-24T02:52:43.310Z,47.60
2019-02-24T02:55:13.728Z,40.43
2019-02-24T02:57:44.209Z,45.70
2019-02-24T03:00:32.145Z,42.07
2019-02-24T03:03:02.575Z,48.37
2019-02-24T03:05:34.743Z,49.17
2019-02-24T03:08:12.950Z,43.50
2019-02-24T03:10:43.389Z,48.90
2019-02-24T03:13:13.662Z,46.40
2019-02-24T03:15:44.041Z,42.20
2019-02-24T03:18:14.572Z,48.43
2019-02-24T03:20:45.208Z,45.63
2019-02-24T03:23:17.354Z,46.57
2019-02-24T03:25:47.814Z,46.57
2019-02-24T03:28:19.877Z,41.63
2019-02-24T03:30:52.983Z,47.13
2019-02-24T03:33:25.035Z,44.30
2019-02-24T03:35:56.493Z,47.30
2019-02-24T03:38:28.397Z,44.37
2019-02-24T03:40:58.603Z,38.83
2019-02-24T03:43:29.048Z,40.30
2019-02-24T03:46:00.367Z,45.03
2019-02-24T03:48:31.845Z,58.83
2019-02-24T03:51:02.164Z,42.27
2019-02-24T03:53:33.514Z,44.77
2019-02-24T03:56:04.865Z,45.23
2019-02-24T03:58:35.386Z,37.13
2019-02-24T04:01:05.812Z,40.70
2019-02-24T04:03:36.139Z,47.63
2019-02-24T04:06:08.318Z,46.70
2019-02-24T04:08:40.791Z,39.43
2019-02-24T04:11:12.044Z,38.90
2019-02-24T04:13:43.288Z,37.60
2019-02-24T04:16:15.409Z,37.07
2019-02-24T04:18:45.694Z,40.27
2019-02-24T04:21:15.968Z,34.87
2019-02-24T04:23:47.591Z,34.33
2019-02-24T04:26:18.108Z,38.80
2019-02-24T04:28:50.843Z,37.83
2019-02-24T04:31:21.196Z,36.97
2019-02-24T04:33:52.320Z,38.23
2019-02-24T04:36:23.823Z,36.17
2019-02-24T04:38:55.737Z,35.70
2019-02-24T04:41:27.847Z,35.57
2019-02-24T04:43:58.218Z,37.13
2019-02-24T04:46:29.736Z,40.40
2019-02-24T04:48:59.981Z,39.10
2019-02-24T04:51:31.699Z,36.17
2019-02-24T04:54:03.017Z,45.00
2019-02-24T04:56:33.219Z,38.03
2019-02-24T04:59:03.672Z,37.57
2019-02-24T05:01:34.854Z,42.20
2019-02-24T05:04:06.966Z,42.00
2019-02-24T05:06:37.378Z,34.40
2019-02-24T05:09:09.791Z,34.40
2019-02-24T05:11:40.079Z,36.27
2019-02-24T05:14:10.520Z,40.87
2019-02-24T05:16:42.221Z,40.53
2019-02-24T05:19:14.341Z,39.03
2019-02-24T05:21:45.699Z,41.13
2019-02-24T05:24:16.025Z,41.00
2019-02-24T05:26:47.276Z,40.13
2019-02-24T05:29:17.905Z,36.87
2019-02-24T05:31:48.443Z,37.03
2019-02-24T05:34:19.212Z,38.23
2019-02-24T05:36:51.449Z,35.30
2019-02-24T05:39:23.772Z,38.47
2019-02-24T05:41:54.050Z,39.70
2019-02-24T05:44:24.396Z,38.40
2019-02-24T05:46:54.772Z,34.07
2019-02-24T05:49:26.774Z,41.20
2019-02-24T05:51:58.663Z,33.80
2019-02-24T05:54:28.849Z,43.10
2019-02-24T05:56:59.279Z,34.97
2019-02-24T05:59:31.443Z,48.37
2019-02-24T06:02:01.602Z,38.27
2019-02-24T06:04:32.022Z,35.67
2019-02-24T06:07:03.475Z,43.33
2019-02-24T06:09:33.834Z,37.23
2019-02-24T06:12:04.442Z,41.87
2019-02-24T06:14:35.279Z,34.47
2019-02-24T06:17:06.536Z,35.80
2019-02-24T06:19:38.636Z,42.73
2019-02-24T06:22:09.070Z,40.20
2019-02-24T06:24:39.491Z,35.70
2019-02-24T06:27:10.100Z,42.37
2019-02-24T06:29:40.648Z,36.80
2019-02-24T06:32:11.134Z,39.53
2019-02-24T06:34:42.073Z,45.63
2019-02-24T06:37:14.447Z,38.93
2019-02-24T06:39:46.748Z,38.90
2019-02-24T06:42:18.215Z,35.17
2019-02-24T06:44:49.045Z,37.60
2019-02-24T06:47:19.580Z,38.40
2019-02-24T06:49:49.839Z,38.03
2019-02-24T06:52:23.562Z,38.60
2019-02-24T06:54:54.743Z,29.70
2019-02-24T06:57:25.976Z,32.40
2019-02-24T06:59:57.145Z,32.07
2019-02-24T07:02:27.695Z,28.20
2019-02-24T07:04:57.786Z,31.27
2019-02-24T07:07:28.234Z,28.77
2019-02-24T07:09:58.417Z,28.90
2019-02-24T07:12:28.611Z,29.17
2019-02-24T07:14:58.838Z,26.47
2019-02-24T07:17:29.454Z,26.50
2019-02-24T07:20:00.889Z,31.87
2019-02-24T07:22:32.211Z,25.67
2019-02-24T07:25:02.610Z,23.70
2019-02-24T07:27:34.764Z,25.87
2019-02-24T07:30:05.885Z,23.90
2019-02-24T07:32:36.634Z,22.53
2019-02-24T07:35:07.261Z,30.13
2019-02-24T07:37:38.326Z,24.40
2019-02-24T07:40:09.674Z,22.33
2019-02-24T07:42:41.260Z,22.43
2019-02-24T07:45:13.290Z,21.30
2019-02-24T07:47:43.715Z,22.43
2019-02-24T07:50:14.989Z,23.77
2019-02-24T07:52:48.277Z,21.30
2019-02-24T07:55:19.125Z,17.53
2019-02-24T07:57:50.577Z,17.93
2019-02-24T08:00:20.708Z,18.90
2019-02-24T08:02:51.299Z,20.90
2019-02-24T08:05:21.512Z,20.93
2019-02-24T08:07:52.168Z,18.77
2019-02-24T08:10:23.825Z,19.70
2019-02-24T08:12:54.664Z,20.40
2019-02-24T08:15:26.353Z,14.90
2019-02-24T08:17:56.638Z,14.40
2019-02-24T08:20:28.710Z,14.77
2019-02-24T08:23:00.203Z,17.63
2019-02-24T08:25:30.855Z,12.00
2019-02-24T08:28:02.498Z,11.63
2019-02-24T08:30:41.212Z,12.87
2019-02-24T08:33:05.611Z,11.30
2019-02-24T08:35:37.379Z,11.53
2019-02-24T08:38:09.646Z,11.70
2019-02-24T08:40:39.972Z,12.70
2019-02-24T08:43:10.304Z,11.73
2019-02-24T08:45:40.629Z,9.87
2019-02-24T08:48:11.164Z,11.13
2019-02-24T08:50:41.491Z,9.73
2019-02-24T08:53:12.047Z,9.77
2019-02-24T08:55:42.557Z,13.00
2019-02-24T08:58:14.147Z,12.03
2019-02-24T09:00:51.041Z,10.87
2019-02-24T09:03:20.707Z,13.33
2019-02-24T09:05:51.442Z,11.17
2019-02-24T09:08:22.938Z,13.50
2019-02-24T09:10:54.557Z,13.87
2019-02-24T09:13:24.894Z,14.17
2019-02-24T09:15:56.298Z,11.63
2019-02-24T09:18:27.691Z,13.90
2019-02-24T09:20:59.034Z,13.10
2019-02-24T09:23:29.472Z,13.00
2019-02-24T09:25:59.762Z,13.00
2019-02-24T09:28:32.120Z,11.77
2019-02-24T09:31:03.654Z,11.20
2019-02-24T09:33:36.211Z,15.00
2019-02-24T09:36:06.662Z,11.00
2019-02-24T09:38:37.173Z,9.83
2019-02-24T09:41:09.553Z,13.13
2019-02-24T09:43:39.797Z,9.97
2019-02-24T09:46:13.281Z,11.27
2019-02-24T09:48:43.609Z,12.73
2019-02-24T09:51:14.244Z,12.00
2019-02-24T09:53:44.572Z,10.60
2019-02-24T09:56:16.412Z,13.10
2019-02-24T09:58:46.456Z,11.30
2019-02-24T10:01:16.898Z,11.27
2019-02-24T10:03:47.333Z,12.40
2019-02-24T10:06:20.718Z,12.37
2019-02-24T10:08:53.397Z,14.30
2019-02-24T10:11:23.833Z,11.10
2019-02-24T10:13:54.363Z,12.53
2019-02-24T10:16:24.793Z,14.63
2019-02-24T10:18:55.159Z,10.97
2019-02-24T10:21:25.756Z,14.17
2019-02-24T10:23:56.495Z,13.83
2019-02-24T10:26:28.039Z,12.60
2019-02-24T10:28:58.569Z,11.53
2019-02-24T10:31:30.961Z,11.70
2019-02-24T10:34:02.746Z,12.07
2019-02-24T10:36:34.116Z,14.63
2019-02-24T10:39:05.223Z,12.07
2019-02-24T10:41:35.651Z,15.03
2019-02-24T10:44:06.902Z,17.20
2019-02-24T10:46:38.569Z,17.03
2019-02-24T10:49:09.903Z,12.03
2019-02-24T10:51:40.453Z,11.40
2019-02-24T10:54:11.792Z,10.90
2019-02-24T10:56:43.021Z,11.93
2019-02-24T10:59:16.923Z,10.97
2019-02-24T11:01:47.957Z,11.47
2019-02-24T11:04:19.865Z,13.63
2019-02-24T11:06:50.294Z,10.47
2019-02-24T11:09:23.693Z,16.03
2019-02-24T11:11:54.248Z,10.70
2019-02-24T11:14:24.512Z,14.50
2019-02-24T11:16:54.800Z,9.07
2019-02-24T11:19:26.232Z,9.40
2019-02-24T11:21:57.031Z,10.90
2019-02-24T11:24:27.339Z,14.47
2019-02-24T11:26:58.603Z,10.23
2019-02-24T11:29:29.345Z,12.70
2019-02-24T11:32:01.447Z,10.13
2019-02-24T11:34:31.908Z,11.80
2019-02-24T11:37:03.490Z,13.83
2019-02-24T11:39:33.879Z,13.50
2019-02-24T11:42:04.002Z,16.77
2019-02-24T11:44:35.075Z,12.13
2019-02-24T11:47:05.681Z,15.83
2019-02-24T11:49:37.270Z,11.83
2019-02-24T11:52:07.489Z,14.27
2019-02-24T11:54:37.815Z,9.20
2019-02-24T11:57:07.984Z,24.30
2019-02-24T11:59:41.009Z,12.13
2019-02-24T12:02:12.441Z,10.93
2019-02-24T12:04:44.097Z,9.23
2019-02-24T12:07:14.548Z,9.87
2019-02-24T12:09:44.936Z,8.87
2019-02-24T12:12:15.113Z,13.77
2019-02-24T12:14:45.403Z,12.73
2019-02-24T12:17:15.849Z,12.87
2019-02-24T12:19:46.298Z,10.43
2019-02-24T12:22:20.532Z,11.50
2019-02-24T12:24:54.025Z,9.73
2019-02-24T12:27:24.524Z,10.37
2019-02-24T12:29:57.645Z,10.53
2019-02-24T12:32:28.201Z,9.30
2019-02-24T12:34:58.704Z,14.23
2019-02-24T12:37:29.161Z,11.07
2019-02-24T12:39:59.657Z,10.87
2019-02-24T12:42:30.375Z,10.70
2019-02-24T12:45:01.775Z,11.43
2019-02-24T12:47:33.729Z,9.20
2019-02-24T12:50:05.914Z,9.80
2019-02-24T12:52:39.598Z,11.10
2019-02-24T12:55:13.231Z,9.80
2019-02-24T12:57:43.689Z,14.30
2019-02-24T13:00:16.895Z,10.90
2019-02-24T13:02:48.695Z,12.10
2019-02-24T13:05:19.228Z,14.00
2019-02-24T13:07:50.703Z,9.80
2019-02-24T13:10:23.158Z,10.13
2019-02-24T13:12:55.153Z,11.40
2019-02-24T13:15:27.498Z,11.90
2019-02-24T13:18:00.591Z,14.20
2019-02-24T13:20:32.864Z,10.90
2019-02-24T13:23:05.341Z,13.20
2019-02-24T13:25:35.792Z,9.70
2019-02-24T13:28:06.258Z,9.53
2019-02-24T13:30:36.520Z,9.17
2019-02-24T13:33:07.573Z,10.90
2019-02-24T13:35:40.741Z,9.67
2019-02-24T13:38:12.586Z,7.30
2019-02-24T13:40:48.790Z,6.90
2019-02-24T13:43:20.173Z,8.50
2019-02-24T13:45:50.473Z,9.00
2019-02-24T13:48:20.599Z,10.27
2019-02-24T13:50:53.904Z,11.00
2019-02-24T13:53:25.628Z,8.30
2019-02-24T13:55:56.445Z,10.80
2019-02-24T13:58:26.831Z,16.40
2019-02-24T14:00:57.506Z,13.70
2019-02-24T14:03:28.186Z,8.17
2019-02-24T14:05:58.845Z,10.80
2019-02-24T14:08:30.495Z,12.30
2019-02-24T14:11:00.839Z,10.63
2019-02-24T14:13:32.497Z,9.23
2019-02-24T14:16:04.042Z,8.77
2019-02-24T14:18:34.401Z,11.23
2019-02-24T14:21:04.558Z,9.30
2019-02-24T14:23:34.819Z,13.70
2019-02-24T14:26:05.419Z,8.87
2019-02-24T14:28:36.830Z,9.00
2019-02-24T14:31:07.631Z,14.80
2019-02-24T14:33:37.719Z,14.00
2019-02-24T14:36:09.397Z,10.83
2019-02-24T14:38:40.149Z,9.00
2019-02-24T14:41:11.539Z,14.70
2019-02-24T14:43:41.904Z,9.23
2019-02-24T14:46:12.277Z,13.73
2019-02-24T14:48:44.712Z,8.77
2019-02-24T14:51:16.107Z,8.43
2019-02-24T14:53:46.433Z,9.57
2019-02-24T14:56:16.863Z,8.37
2019-02-24T14:58:48.419Z,8.40
2019-02-24T15:01:19.906Z,8.10
2019-02-24T15:03:50.618Z,7.60
2019-02-24T15:06:21.298Z,8.27
2019-02-24T15:08:51.823Z,8.13
2019-02-24T15:11:23.143Z,11.77
2019-02-24T15:13:54.293Z,7.67
2019-02-24T15:16:24.901Z,8.87
2019-02-24T15:18:55.759Z,8.77
2019-02-24T15:21:26.097Z,8.70
2019-02-24T15:23:58.089Z,9.53
2019-02-24T15:26:29.502Z,9.20
2019-02-24T15:29:00.958Z,10.53
2019-02-24T15:31:31.414Z,9.60
2019-02-24T15:34:02.917Z,9.93
2019-02-24T15:36:35.306Z,8.40
2019-02-24T15:39:07.747Z,9.40
2019-02-24T15:41:37.885Z,9.10
2019-02-24T15:44:10.119Z,10.07
2019-02-24T15:46:41.753Z,9.50
2019-02-24T15:49:12.056Z,9.27
2019-02-24T15:51:42.534Z,11.50
2019-02-24T15:54:13.100Z,12.73
2019-02-24T15:56:43.373Z,11.33
2019-02-24T15:59:16.014Z,11.33
2019-02-24T16:01:49.296Z,12.53
2019-02-24T16:04:21.964Z,9.87
2019-02-24T16:06:52.326Z,13.57
2019-02-24T16:09:25.916Z,12.10
2019-02-24T16:11:56.486Z,11.23
2019-02-24T16:14:28.780Z,11.47
2019-02-24T16:16:59.390Z,16.03
2019-02-24T16:19:30.667Z,10.80
2019-02-24T16:22:01.606Z,13.23
2019-02-24T16:24:32.066Z,11.97
2019-02-24T16:27:02.576Z,11.80
2019-02-24T16:29:33.995Z,11.30
2019-02-24T16:32:06.371Z,13.33
2019-02-24T16:34:38.029Z,14.93
2019-02-24T16:37:11.942Z,12.37
2019-02-24T16:39:45.020Z,12.43
2019-02-24T16:42:15.641Z,11.10
2019-02-24T16:44:47.963Z,11.00
2019-02-24T16:47:21.055Z,10.97
2019-02-24T16:49:51.770Z,13.33
2019-02-24T16:52:21.999Z,9.90
2019-02-24T16:54:55.326Z,14.40
2019-02-24T16:57:28.003Z,12.20
2019-02-24T16:59:58.869Z,14.37
2019-02-24T17:02:32.972Z,10.10
2019-02-24T17:05:04.160Z,36.57
2019-02-24T17:07:35.196Z,86.17
2019-02-24T17:10:06.480Z,44.73
2019-02-24T17:12:37.848Z,30.53
2019-02-24T17:15:11.551Z,20.80
2019-02-24T17:17:43.870Z,14.80
2019-02-24T17:20:15.824Z,14.07
2019-02-24T17:22:48.681Z,20.33
2019-02-24T17:25:19.219Z,15.57
2019-02-24T17:27:50.886Z,15.70
2019-02-24T17:30:23.702Z,17.83
2019-02-24T17:32:54.483Z,37.83
2019-02-24T17:35:26.492Z,21.40
2019-02-24T17:37:59.259Z,19.47
2019-02-24T17:40:29.786Z,21.73
2019-02-24T17:43:02.796Z,18.70
2019-02-24T17:45:35.478Z,18.57
2019-02-24T17:48:07.130Z,21.27
2019-02-24T17:50:39.403Z,19.70
2019-02-24T17:53:11.467Z,16.13
2019-02-24T17:55:43.634Z,13.70
2019-02-24T17:58:14.057Z,19.00
2019-02-24T18:00:50.015Z,16.90
2019-02-24T18:03:20.444Z,20.67
2019-02-24T18:05:52.438Z,19.30
2019-02-24T18:08:28.287Z,22.77
2019-02-24T18:10:56.231Z,22.70
2019-02-24T18:13:26.552Z,32.03
2019-02-24T18:16:00.003Z,21.83
2019-02-24T18:18:30.960Z,12.73
2019-02-24T18:21:01.933Z,14.67
2019-02-24T18:23:33.771Z,12.00
2019-02-24T18:26:08.409Z,17.20
2019-02-24T18:28:44.994Z,14.53
2019-02-24T18:31:16.883Z,15.40
2019-02-24T18:33:48.971Z,16.77
2019-02-24T18:36:22.142Z,16.80
2019-02-24T18:38:53.420Z,22.67
2019-02-24T18:41:23.843Z,35.33
2019-02-24T18:43:58.441Z,18.33
2019-02-24T18:46:28.866Z,21.67
2019-02-24T18:49:00.310Z,21.40
2019-02-24T18:51:32.536Z,20.03
2019-02-24T18:54:03.953Z,17.47
2019-02-24T18:56:34.593Z,18.07
2019-02-24T18:59:05.219Z,19.97
2019-02-24T19:01:36.344Z,22.33
2019-02-24T19:04:07.416Z,22.73
2019-02-24T19:06:39.322Z,25.10
2019-02-24T19:09:10.542Z,24.53
2019-02-24T19:11:41.682Z,24.87
2019-02-24T19:14:14.767Z,24.33
2019-02-24T19:16:45.078Z,20.87
2019-02-24T19:19:25.175Z,27.70
2019-02-24T19:21:50.461Z,23.03
2019-02-24T19:24:21.012Z,32.33
2019-02-24T19:26:53.880Z,23.50
2019-02-24T19:29:24.676Z,21.73
2019-02-24T19:31:56.499Z,24.80
2019-02-24T19:34:27.310Z,22.33
2019-02-24T19:36:58.956Z,27.43
2019-02-24T19:39:31.175Z,22.83
2019-02-24T19:42:01.748Z,51.77
2019-02-24T19:44:34.218Z,29.37
2019-02-24T19:47:04.648Z,29.47
2019-02-24T19:49:35.137Z,26.13
2019-02-24T19:52:07.009Z,24.43
2019-02-24T19:54:40.316Z,21.30
2019-02-24T19:57:12.476Z,22.90
2019-02-24T19:59:45.316Z,24.13
2019-02-24T20:02:16.814Z,23.60
2019-02-24T20:04:47.675Z,24.80
2019-02-24T20:07:19.582Z,24.20
2019-02-24T20:09:50.092Z,32.80
2019-02-24T20:12:20.156Z,39.87
2019-02-24T20:14:51.133Z,29.93
2019-02-24T20:17:21.570Z,32.10
2019-02-24T20:19:52.027Z,31.60
2019-02-24T20:22:22.485Z,32.50
2019-02-24T20:24:53.050Z,34.67
2019-02-24T20:27:23.558Z,32.73
2019-02-24T20:29:55.125Z,31.87
2019-02-24T20:32:26.184Z,27.03
2019-02-24T20:34:56.903Z,28.67
2019-02-24T20:37:27.363Z,32.10
2019-02-24T20:39:59.602Z,35.27
2019-02-24T20:42:30.679Z,34.37
2019-02-24T20:45:03.240Z,34.23
2019-02-24T20:47:34.689Z,26.30
2019-02-24T20:50:05.939Z,33.30
2019-02-24T20:52:36.703Z,37.10
2019-02-24T20:55:09.864Z,36.30
2019-02-24T20:57:40.904Z,33.80
2019-02-24T21:00:23.108Z,32.90
2019-02-24T21:02:54.307Z,30.77
2019-02-24T21:05:24.849Z,33.40
2019-02-24T21:07:55.678Z,37.20
2019-02-24T21:10:26.093Z,29.43
2019-02-24T21:12:56.581Z,35.77
2019-02-24T21:15:27.293Z,36.40
2019-02-24T21:17:57.695Z,36.90
2019-02-24T21:20:30.255Z,28.33
2019-02-24T21:23:01.093Z,36.33
2019-02-24T21:25:31.956Z,42.47
2019-02-24T21:28:03.952Z,43.50
2019-02-24T21:30:35.334Z,56.63
2019-02-24T21:33:08.027Z,66.73
2019-02-24T21:35:38.270Z,47.67
2019-02-24T21:38:09.064Z,47.40
2019-02-24T21:40:40.310Z,47.37
2019-02-24T21:43:11.082Z,44.40
2019-02-24T21:45:41.846Z,30.97
2019-02-24T21:48:13.175Z,40.83
2019-02-24T21:50:43.955Z,31.77
2019-02-24T21:53:14.444Z,28.10
2019-02-24T21:55:46.088Z,33.20
2019-02-24T21:58:16.302Z,29.03
2019-02-24T22:00:46.812Z,32.63
2019-02-24T22:03:19.370Z,29.90
2019-02-24T22:05:50.198Z,34.63
2019-02-24T22:08:20.507Z,31.50
2019-02-24T22:10:50.970Z,32.90
2019-02-24T22:13:21.431Z,33.93
2019-02-24T22:15:52.221Z,42.73
2019-02-24T22:18:24.703Z,32.20
2019-02-24T22:20:56.132Z,29.50
2019-02-24T22:23:27.665Z,27.87
2019-02-24T22:26:00.946Z,39.20
2019-02-24T22:28:31.212Z,25.20
2019-02-24T22:31:02.871Z,28.83
2019-02-24T22:33:33.288Z,30.80
2019-02-24T22:36:06.297Z,30.60
2019-02-24T22:38:36.769Z,28.83
2019-02-24T22:41:08.902Z,33.97
2019-02-24T22:43:40.862Z,30.70
2019-02-24T22:46:12.418Z,27.03
2019-02-24T22:48:42.951Z,26.60
2019-02-24T22:51:22.595Z,33.03
2019-02-24T22:53:54.875Z,28.17
2019-02-24T22:56:26.422Z,21.57
2019-02-24T22:58:57.532Z,27.30
2019-02-24T23:01:31.885Z,23.10
2019-02-24T23:04:11.604Z,23.60
2019-02-24T23:06:41.960Z,28.93
2019-02-24T23:09:16.523Z,25.10
2019-02-24T23:11:47.326Z,29.63
2019-02-24T23:14:19.598Z,19.90
2019-02-24T23:16:49.975Z,25.30
2019-02-24T23:19:21.579Z,28.13
2019-02-24T23:21:53.954Z,25.17
2019-02-24T23:24:26.926Z,25.73
2019-02-24T23:26:57.181Z,26.10
2019-02-24T23:29:29.336Z,28.93
2019-02-24T23:32:01.205Z,25.73
2019-02-24T23:34:31.474Z,29.20
2019-02-24T23:37:02.476Z,25.53
2019-02-24T23:39:34.380Z,22.70
2019-02-24T23:42:05.920Z,21.77
2019-02-24T23:44:37.055Z,23.47
2019-02-24T23:47:07.823Z,24.90
2019-02-24T23:49:38.211Z,23.33
2019-02-24T23:52:08.745Z,26.00
2019-02-24T23:54:41.364Z,30.77
2019-02-24T23:57:12.779Z,25.63
2019-02-24T23:59:45.770Z,28.57
